Time;durP1;ratioP1;P1;durP2;ratioP2;P2;SDS_P1;SDS_P2;PMS_P1;PMS_P2;Temp;Humidity;BMP_temperature;BMP_pressure;BME280_temperature;BME280_humidity;BME280_pressure;Samples;Min_cycle;Max_cycle;Signal;HPM_P1;HPM_P2
2023/10/17 00:02:48;;;;;;;0.98;0.80;;;;;;;19.10;50.54;96594.47;10431202;28;20123;-30
2023/10/17 00:07:49;;;;;;;1.33;0.80;;;;;;;19.11;50.28;96591.06;10434367;28;20537;-29
2023/10/17 00:12:52;;;;;;;2.47;1.13;;;;;;;19.06;50.65;96587.69;10431496;28;20033;-31
2023/10/17 00:18:00;;;;;;;0.77;0.70;;;;;;;19.06;50.68;96600.38;10440835;28;20049;-29
2023/10/17 00:23:00;;;;;;;1.63;1.10;;;;;;;19.05;50.07;96598.69;10437879;28;20051;-30
2023/10/17 00:28:02;;;;;;;1.45;0.90;;;;;;;19.07;51.08;96604.59;10431967;28;20109;-29
2023/10/17 00:33:05;;;;;;;1.75;0.90;;;;;;;19.05;50.61;96603.78;10436297;28;20040;-29
2023/10/17 00:38:08;;;;;;;2.22;1.15;;;;;;;19.05;50.50;96588.53;10444221;28;20024;-29
2023/10/17 00:43:12;;;;;;;2.90;1.25;;;;;;;19.09;50.37;96575.00;10445088;28;20033;-29
2023/10/17 00:48:18;;;;;;;1.52;1.05;;;;;;;19.07;50.19;96577.53;10432953;28;20025;-30
2023/10/17 00:53:20;;;;;;;1.35;1.05;;;;;;;19.05;50.12;96586.00;10440202;28;20033;-29
2023/10/17 00:58:24;;;;;;;1.85;1.00;;;;;;;19.04;50.36;96576.72;10440564;28;20473;-30
2023/10/17 01:03:28;;;;;;;1.45;0.80;;;;;;;19.08;50.10;96580.94;10434377;28;20030;-30
2023/10/17 01:08:37;;;;;;;1.90;0.90;;;;;;;19.06;49.70;96575.00;10433331;28;20055;-30
2023/10/17 01:13:38;;;;;;;2.53;1.20;;;;;;;19.03;50.09;96569.97;10452159;28;20029;-29
2023/10/17 01:18:38;;;;;;;1.40;0.95;;;;;;;19.05;49.59;96578.41;10440921;28;20041;-31
2023/10/17 01:23:39;;;;;;;1.80;1.00;;;;;;;19.06;49.58;96569.94;10443702;28;20080;-29
2023/10/17 01:28:47;;;;;;;2.53;1.15;;;;;;;19.07;49.90;96571.63;10433506;28;20515;-29
2023/10/17 01:33:55;;;;;;;3.13;0.93;;;;;;;19.04;49.96;96566.56;10434368;28;20033;-29
2023/10/17 01:38:55;;;;;;;2.65;1.13;;;;;;;19.02;50.20;96568.28;10429488;28;20031;-29
2023/10/17 01:43:56;;;;;;;1.70;1.03;;;;;;;19.04;50.08;96551.34;10443159;28;20484;-29
2023/10/17 01:49:00;;;;;;;2.08;1.42;;;;;;;19.03;49.78;96550.50;10433744;28;20039;-30
2023/10/17 01:54:07;;;;;;;2.20;1.05;;;;;;;19.02;49.83;96532.75;10437116;28;20036;-29
2023/10/17 01:59:29;;;;;;;1.50;1.10;;;;;;;19.03;50.01;96529.38;10429687;28;20037;-29
2023/10/17 02:04:29;;;;;;;1.67;1.05;;;;;;;19.06;49.45;96536.94;10440729;28;20067;-29
2023/10/17 02:14:31;;;;;;;1.73;1.03;;;;;;;19.02;49.67;96548.81;10430557;28;20044;-30
2023/10/17 02:19:32;;;;;;;1.75;1.05;;;;;;;19.02;49.72;96553.88;10426772;28;20075;-29
2023/10/17 02:24:32;;;;;;;2.97;1.10;;;;;;;19.02;49.78;96543.72;10438141;28;20032;-29
2023/10/17 02:29:38;;;;;;;2.90;1.20;;;;;;;19.03;49.65;96545.44;10444062;28;20039;-29
2023/10/17 02:34:43;;;;;;;1.33;0.95;;;;;;;19.03;49.42;96550.50;10429128;28;20044;-30
2023/10/17 02:39:43;;;;;;;2.15;1.27;;;;;;;18.99;49.19;96542.94;10436158;28;20028;-30
2023/10/17 02:44:44;;;;;;;1.70;1.03;;;;;;;19.03;49.18;96552.19;10443540;28;20487;-29
2023/10/17 02:49:46;;;;;;;2.30;1.23;;;;;;;19.03;49.10;96555.59;10435953;28;20453;-29
2023/10/17 02:55:23;;;;;;;1.90;1.00;;;;;;;19.02;48.78;96553.88;10431769;28;20040;-31
2023/10/17 03:00:22;;;;;;;2.67;1.15;;;;;;;19.02;49.30;96563.19;10429075;28;20038;-31
2023/10/17 03:05:24;;;;;;;1.55;1.30;;;;;;;19.01;49.07;96556.44;10433800;28;20052;-29
2023/10/17 03:10:37;;;;;;;1.73;0.98;;;;;;;19.02;49.20;96555.59;10428051;28;20041;-29
2023/10/17 03:15:38;;;;;;;1.85;1.15;;;;;;;19.00;49.37;96555.59;10433836;28;20033;-30
2023/10/17 03:20:41;;;;;;;3.53;1.00;;;;;;;18.97;49.33;96549.69;10438500;28;20044;-29
2023/10/17 03:25:41;;;;;;;1.80;1.10;;;;;;;19.00;49.15;96557.28;10440943;28;20121;-29
2023/10/17 03:30:43;;;;;;;1.52;1.00;;;;;;;19.01;49.14;96556.44;10438401;28;20041;-30
2023/10/17 03:36:03;;;;;;;2.25;1.10;;;;;;;19.01;48.82;96553.91;10434257;28;20052;-29
2023/10/17 03:41:15;;;;;;;1.48;0.85;;;;;;;18.98;49.20;96547.16;10434235;28;20033;-30
2023/10/17 03:46:15;;;;;;;1.33;0.95;;;;;;;19.00;49.36;96540.34;10427902;28;20492;-30
2023/10/17 03:51:23;;;;;;;1.20;0.90;;;;;;;19.04;48.88;96534.44;10436031;28;20033;-29
2023/10/17 03:56:35;;;;;;;2.10;1.10;;;;;;;19.05;48.64;96542.88;10442398;28;20044;-29
2023/10/17 04:01:35;;;;;;;2.00;1.13;;;;;;;19.10;48.26;96533.56;10429797;28;20454;-29
2023/10/17 04:06:39;;;;;;;1.70;1.30;;;;;;;19.13;48.14;96525.91;10428739;28;20029;-29
2023/10/17 04:11:39;;;;;;;1.48;1.00;;;;;;;19.16;47.32;96520.84;10434031;28;20037;-29
2023/10/17 04:16:43;;;;;;;1.73;1.10;;;;;;;19.20;47.24;96512.38;10447612;28;20040;-29
2023/10/17 04:22:30;;;;;;;1.48;0.98;;;;;;;19.20;46.97;96512.38;10437849;28;20427;-30
2023/10/17 04:27:06;;;;;;;1.67;1.13;;;;;;;19.21;46.49;96506.44;10437167;28;20047;-29
2023/10/17 04:32:13;;;;;;;1.77;0.90;;;;;;;19.25;46.31;96505.59;10439215;28;20044;-30
2023/10/17 04:37:18;;;;;;;1.30;0.68;;;;;;;19.23;47.05;96509.81;10439731;28;20114;-29
2023/10/17 04:47:38;;;;;;;2.50;1.27;;;;;;;19.23;46.51;96502.19;10442021;28;20442;-29
2023/10/17 04:52:44;;;;;;;3.83;1.20;;;;;;;19.19;46.78;96508.16;10444283;28;20094;-29
2023/10/17 04:58:30;;;;;;;8.32;1.40;;;;;;;19.22;46.82;96505.59;10442249;28;20076;-29
2023/10/17 05:03:26;;;;;;;4.85;1.55;;;;;;;19.23;45.95;96513.19;10447901;28;20030;-29
2023/10/17 05:08:49;;;;;;;3.50;1.10;;;;;;;19.22;47.17;96510.66;10443919;28;20049;-29
2023/10/17 06:17:53;;;;;;;3.05;1.40;;;;;;;18.96;46.33;96517.56;10439767;28;20044;-29
2023/10/17 06:28:35;;;;;;;5.10;1.45;;;;;;;19.05;46.23;96530.19;10397841;28;20047;-30
2023/10/17 06:33:35;;;;;;;5.45;1.30;;;;;;;19.03;46.45;96524.28;10434290;28;20053;-30
2023/10/17 06:38:45;;;;;;;2.80;1.20;;;;;;;19.04;46.68;96526.81;10443721;28;20044;-31
2023/10/17 06:43:49;;;;;;;3.03;1.13;;;;;;;19.06;46.28;96531.88;10441147;28;20021;-30
2023/10/17 06:48:56;;;;;;;2.58;1.08;;;;;;;19.05;46.15;96535.25;10438037;28;20044;-30
2023/10/17 06:54:05;;;;;;;3.17;0.98;;;;;;;19.04;46.53;96541.19;10440791;28;20029;-29
2023/10/17 06:59:24;;;;;;;3.08;1.27;;;;;;;19.04;46.87;96547.13;10442402;28;20139;-30
2023/10/17 07:04:25;;;;;;;1.38;0.90;;;;;;;19.03;46.59;96545.44;10446573;28;20032;-29
2023/10/17 07:09:30;;;;;;;1.30;1.00;;;;;;;19.03;47.19;96534.44;10439413;28;20040;-29
2023/10/17 07:14:31;;;;;;;1.67;1.20;;;;;;;19.04;46.81;96526.81;10440139;28;20021;-31
2023/10/17 07:24:42;;;;;;;1.58;0.90;;;;;;;19.04;46.67;96525.97;10438868;28;20021;-30
2023/10/17 07:29:52;;;;;;;1.23;0.80;;;;;;;19.01;46.75;96524.28;10440997;28;20632;-29
2023/10/17 07:34:52;;;;;;;3.15;0.90;;;;;;;19.02;46.39;96520.06;10442003;28;20031;-30
2023/10/17 07:45:15;;;;;;;2.08;0.65;;;;;;;18.97;46.78;96535.31;10442763;28;20059;-30
2023/10/17 07:50:16;;;;;;;1.35;0.80;;;;;;;18.99;46.65;96533.59;10443433;28;20108;-30
2023/10/17 07:55:34;;;;;;;2.20;1.63;;;;;;;18.99;46.71;96527.69;10445962;28;20033;-29
2023/10/17 08:00:35;;;;;;;2.33;1.13;;;;;;;19.00;46.72;96547.16;10449451;28;20025;-29
2023/10/17 08:05:44;;;;;;;1.75;1.17;;;;;;;18.98;46.88;96557.28;10443455;28;20171;-30
2023/10/17 08:10:48;;;;;;;1.75;1.20;;;;;;;18.97;46.76;96552.22;10441502;28;20124;-30
2023/10/17 08:15:53;;;;;;;1.13;0.90;;;;;;;18.94;46.70;96550.56;10453813;28;20459;-30
2023/10/17 08:26:03;;;;;;;1.67;1.25;;;;;;;18.97;46.94;96562.38;10447946;28;20108;-30
2023/10/17 08:41:41;;;;;;;0.88;0.77;;;;;;;18.99;46.96;96548.81;10445277;28;20399;-29
2023/10/17 08:46:41;;;;;;;1.43;1.03;;;;;;;18.95;47.00;96537.03;10447852;28;20090;-29
2023/10/17 08:51:42;;;;;;;1.07;0.80;;;;;;;19.00;46.94;96527.69;10452789;28;20031;-29
2023/10/17 08:56:45;;;;;;;2.30;1.03;;;;;;;18.97;46.99;96519.22;10446501;28;20036;-29
2023/10/17 09:07:31;;;;;;;1.88;1.17;;;;;;;19.01;47.24;96526.00;10449285;28;20045;-30
2023/10/17 09:13:15;;;;;;;1.35;1.08;;;;;;;18.99;46.98;96528.53;10444056;28;20032;-29
2023/10/17 09:18:08;;;;;;;1.65;0.93;;;;;;;18.99;47.17;96522.63;10445653;28;20120;-29
2023/10/17 09:23:23;;;;;;;1.85;1.10;;;;;;;18.99;47.26;96523.47;10448164;28;20395;-30
2023/10/17 09:28:25;;;;;;;0.93;0.82;;;;;;;18.99;47.12;96515.84;10448681;28;20041;-30
2023/10/17 09:33:32;;;;;;;1.25;1.02;;;;;;;18.98;47.30;96514.16;10436559;28;20112;-31
2023/10/17 09:38:41;;;;;;;1.02;0.88;;;;;;;19.01;47.13;96511.59;10438649;28;20104;-29
2023/10/17 09:43:53;;;;;;;2.08;0.80;;;;;;;19.06;47.16;96509.03;10447845;28;20403;-28
2023/10/17 09:48:59;;;;;;;1.45;0.90;;;;;;;19.06;47.10;96514.09;10441342;28;20039;-30
2023/10/17 09:54:04;;;;;;;1.15;0.80;;;;;;;19.08;47.11;96507.34;10445800;28;20090;-29
2023/10/17 09:59:24;;;;;;;1.23;0.88;;;;;;;19.08;47.27;96494.66;10450908;28;20037;-29
2023/10/17 10:04:25;;;;;;;1.58;1.00;;;;;;;19.07;47.00;96495.50;10445212;28;20033;-29
2023/10/17 10:09:28;;;;;;;1.30;1.00;;;;;;;19.06;47.25;96493.81;10445298;28;20490;-29
2023/10/17 10:14:36;;;;;;;1.48;0.90;;;;;;;19.07;47.29;96495.50;10448416;28;20028;-30
2023/10/17 10:19:57;;;;;;;1.45;0.95;;;;;;;19.08;47.28;96503.09;10438589;28;20037;-31
2023/10/17 10:25:05;;;;;;;1.00;0.90;;;;;;;19.10;47.02;96506.47;10444027;28;20075;-29
2023/10/17 10:30:32;;;;;;;2.63;1.13;;;;;;;19.13;47.09;96495.47;10447726;28;20108;-30
2023/10/17 10:35:32;;;;;;;1.48;1.25;;;;;;;19.13;47.23;96491.25;10439280;28;20029;-31
2023/10/17 10:40:37;;;;;;;1.90;0.90;;;;;;;19.13;47.32;96487.84;10442761;28;20044;-29
2023/10/17 10:45:47;;;;;;;1.45;0.85;;;;;;;19.16;47.88;96491.22;10448868;28;20043;-29
2023/10/17 10:50:49;;;;;;;1.00;0.82;;;;;;;19.17;47.26;96492.06;10447232;28;20033;-30
2023/10/17 10:56:03;;;;;;;0.82;0.70;;;;;;;19.17;49.08;96490.34;10442788;28;20518;-31
2023/10/17 11:01:07;;;;;;;1.55;0.75;;;;;;;19.17;48.85;96490.34;10448413;28;20048;-31
2023/10/17 11:06:08;;;;;;;0.80;0.60;;;;;;;19.17;48.96;96477.66;10441680;28;20763;-29
2023/10/17 11:11:10;;;;;;;1.20;0.70;;;;;;;19.18;49.53;96470.91;10442107;28;20036;-29
2023/10/17 11:16:10;;;;;;;0.88;0.70;;;;;;;19.19;49.36;96468.38;10448947;28;20037;-29
2023/10/17 11:21:12;;;;;;;1.13;0.80;;;;;;;19.19;50.37;96465.00;10442915;28;20086;-29
2023/10/17 11:26:14;;;;;;;2.50;1.10;;;;;;;19.20;49.11;96456.53;10433677;28;20086;-30
2023/10/17 11:31:24;;;;;;;3.17;0.82;;;;;;;19.18;49.04;96453.97;10449053;28;20069;-29
2023/10/17 11:36:35;;;;;;;4.97;1.70;;;;;;;19.17;49.92;96446.38;10435312;28;20039;-30
2023/10/17 11:41:54;;;;;;;3.13;0.70;;;;;;;19.18;50.51;96437.91;10428840;28;20128;-29
2023/10/17 11:47:03;;;;;;;1.70;0.80;;;;;;;19.16;50.93;96424.41;10441324;28;20048;-30
2023/10/17 11:52:12;;;;;;;3.90;0.88;;;;;;;19.20;50.89;96432.03;10432872;28;20060;-29
2023/10/17 11:57:14;;;;;;;5.80;1.38;;;;;;;19.20;49.99;96429.47;10421199;28;20112;-29
2023/10/17 12:02:14;;;;;;;2.17;1.00;;;;;;;19.19;50.52;96426.94;10437782;28;20053;-29
2023/10/17 12:07:15;;;;;;;5.13;1.42;;;;;;;19.24;50.72;96423.50;10432449;28;20498;-29
2023/10/17 12:12:18;;;;;;;3.83;1.48;;;;;;;19.27;49.90;96422.66;10434725;28;20032;-30
2023/10/17 12:17:20;;;;;;;4.97;1.55;;;;;;;19.26;49.52;96416.72;10434563;28;20105;-29
2023/10/17 12:22:20;;;;;;;3.80;0.95;;;;;;;19.26;49.32;96413.34;10423568;28;20075;-29
2023/10/17 12:27:21;;;;;;;4.88;1.00;;;;;;;19.27;49.30;96412.50;10427476;28;20049;-29
2023/10/17 12:32:21;;;;;;;9.90;2.20;;;;;;;19.26;49.15;96420.97;10428363;28;20084;-29
2023/10/17 12:37:21;;;;;;;7.93;1.37;;;;;;;19.29;51.20;96426.00;10437830;28;20059;-30
2023/10/17 12:42:23;;;;;;;7.50;1.27;;;;;;;19.27;52.17;96422.66;10441852;28;20291;-29
2023/10/17 12:47:23;;;;;;;9.35;2.05;;;;;;;19.27;52.00;96420.13;10440258;28;20487;-29
2023/10/17 12:52:24;;;;;;;7.57;1.63;;;;;;;19.26;51.71;96415.91;10436712;28;20036;-29
2023/10/17 12:57:24;;;;;;;6.03;1.90;;;;;;;19.26;51.09;96408.28;10443835;28;20128;-30
2023/10/17 13:02:29;;;;;;;11.37;1.40;;;;;;;19.26;52.25;96406.56;10442835;28;20057;-30
2023/10/17 13:07:29;;;;;;;8.10;1.40;;;;;;;19.25;50.62;96414.22;10440747;28;20037;-29
2023/10/17 13:12:29;;;;;;;10.43;1.50;;;;;;;19.26;50.40;96410.81;10434005;28;20048;-30
2023/10/17 13:17:30;;;;;;;6.43;1.43;;;;;;;19.25;50.97;96409.97;10448232;28;20037;-29
2023/10/17 13:22:30;;;;;;;3.53;1.13;;;;;;;19.26;51.57;96398.13;10439449;28;20279;-29
2023/10/17 13:27:30;;;;;;;2.70;1.00;;;;;;;19.24;49.09;96394.78;10439800;28;20482;-29
2023/10/17 13:32:31;;;;;;;5.90;0.93;;;;;;;19.25;49.45;96388.84;10437465;28;20583;-30
2023/10/17 13:37:32;;;;;;;10.32;1.42;;;;;;;19.20;51.37;96371.13;10450134;28;20494;-29
2023/10/17 13:42:32;;;;;;;6.97;0.87;;;;;;;19.23;50.36;96377.84;10439638;28;20033;-30
2023/10/17 13:47:33;;;;;;;4.10;1.27;;;;;;;19.14;50.63;96352.50;10444996;28;20382;-29
2023/10/17 13:52:36;;;;;;;5.03;1.30;;;;;;;19.23;49.72;96367.69;10443024;28;20558;-29
2023/10/17 13:57:36;;;;;;;4.40;1.13;;;;;;;19.22;50.29;96358.38;10444931;28;20732;-30
2023/10/17 14:02:36;;;;;;;3.35;1.02;;;;;;;19.22;49.99;96354.16;10441801;28;20032;-29
2023/10/17 14:07:39;;;;;;;4.43;0.90;;;;;;;19.23;49.91;96347.38;10444161;28;20457;-29
2023/10/17 14:12:46;;;;;;;2.95;0.75;;;;;;;19.18;49.13;96331.34;10431799;28;20098;-29
2023/10/17 14:17:49;;;;;;;2.88;0.80;;;;;;;19.24;48.71;96336.41;10439162;28;20036;-30
2023/10/17 14:23:08;;;;;;;3.55;1.08;;;;;;;19.23;49.33;96334.69;10442260;28;20136;-30
2023/10/17 14:28:11;;;;;;;3.60;1.75;;;;;;;19.21;49.25;96333.88;10432449;28;20112;-29
2023/10/17 14:33:12;;;;;;;2.70;0.98;;;;;;;19.23;48.91;96322.00;10445160;28;20033;-29
2023/10/17 14:38:13;;;;;;;1.23;0.70;;;;;;;19.23;48.86;96317.78;10440360;28;20037;-29
2023/10/17 14:43:15;;;;;;;1.98;0.73;;;;;;;19.22;49.49;96317.78;10436090;28;20480;-29
2023/10/17 14:48:15;;;;;;;1.40;0.80;;;;;;;19.22;48.76;96315.25;10425812;28;20029;-30
2023/10/17 14:53:19;;;;;;;1.07;0.53;;;;;;;19.21;48.80;96301.72;10428869;28;20029;-29
2023/10/17 14:58:20;;;;;;;0.77;0.60;;;;;;;19.22;48.89;96316.09;10438658;28;20307;-31
2023/10/17 15:03:20;;;;;;;1.73;0.93;;;;;;;19.19;48.96;96307.66;10439058;28;20029;-30
2023/10/17 15:08:20;;;;;;;2.17;0.67;;;;;;;19.22;49.15;96307.63;10433721;28;20562;-30
2023/10/17 15:13:22;;;;;;;2.73;0.83;;;;;;;19.23;48.82;96302.56;10437493;28;20033;-30
2023/10/17 15:18:22;;;;;;;1.67;1.15;;;;;;;19.23;48.85;96297.47;10433476;28;20151;-30
2023/10/17 15:23:23;;;;;;;3.40;1.05;;;;;;;19.23;48.81;96294.09;10433157;28;20565;-29
2023/10/17 15:28:23;;;;;;;3.78;0.80;;;;;;;19.20;51.91;96296.66;10435469;28;20045;-30
2023/10/17 15:33:27;;;;;;;2.93;0.93;;;;;;;19.19;50.31;96292.44;10432594;28;20483;-29
2023/10/17 15:38:27;;;;;;;5.70;1.10;;;;;;;19.18;51.42;96283.13;10437605;28;20029;-29
2023/10/17 15:43:27;;;;;;;1.87;0.77;;;;;;;19.18;51.98;96283.13;10434668;28;20033;-29
2023/10/17 15:48:28;;;;;;;2.93;0.80;;;;;;;19.20;49.53;96283.97;10440418;28;20034;-30
2023/10/17 15:53:29;;;;;;;4.03;1.10;;;;;;;19.23;50.24;96296.63;10431075;28;20044;-30
2023/10/17 15:58:31;;;;;;;2.13;0.88;;;;;;;19.21;49.52;96295.81;10437601;28;20044;-30
2023/10/17 16:03:31;;;;;;;1.33;0.75;;;;;;;19.23;49.66;96289.00;10428804;28;20041;-29
2023/10/17 16:08:32;;;;;;;3.33;0.77;;;;;;;19.13;52.28;96297.53;10429131;28;20119;-30
2023/10/17 16:13:32;;;;;;;7.28;1.20;;;;;;;19.07;52.25;96297.59;10438063;28;20982;-28
2023/10/17 16:18:33;;;;;;;1.93;0.90;;;;;;;19.15;50.31;96296.69;10433248;28;20047;-30
2023/10/17 16:23:34;;;;;;;2.73;1.10;;;;;;;19.18;50.42;96304.25;10435561;28;20098;-29
2023/10/17 16:28:35;;;;;;;3.42;1.00;;;;;;;19.19;50.47;96307.66;10445919;28;20275;-30
2023/10/17 16:33:35;;;;;;;5.33;1.47;;;;;;;19.20;51.84;96306.81;10447257;28;20083;-30
2023/10/17 16:38:35;;;;;;;8.23;1.30;;;;;;;19.17;52.13;96301.75;10442696;28;20039;-30
2023/10/17 16:43:36;;;;;;;3.22;1.00;;;;;;;19.21;51.77;96298.34;10443036;28;20037;-29
2023/10/17 16:48:36;;;;;;;4.57;1.20;;;;;;;19.19;51.57;96307.66;10441718;28;20439;-30
2023/10/17 16:53:38;;;;;;;5.67;1.20;;;;;;;19.21;50.79;96311.03;10442484;28;20041;-30
2023/10/17 16:58:38;;;;;;;5.32;1.85;;;;;;;19.15;51.10;96321.19;10441916;28;20123;-30
2023/10/17 17:03:39;;;;;;;6.70;1.93;;;;;;;19.05;50.81;96329.75;10435682;28;20083;-30
2023/10/17 17:08:39;;;;;;;2.22;1.00;;;;;;;19.13;49.97;96328.00;10433108;28;20045;-30
2023/10/17 17:13:40;;;;;;;4.63;1.35;;;;;;;19.15;50.59;96332.19;10449137;28;20056;-29
2023/10/17 17:18:40;;;;;;;21.57;3.20;;;;;;;19.17;52.69;96333.03;10447205;28;20033;-29
2023/10/17 17:23:41;;;;;;;15.43;3.07;;;;;;;19.19;53.33;96333.06;10437085;28;20291;-29
2023/10/17 17:28:41;;;;;;;7.50;2.33;;;;;;;19.17;53.81;96339.81;10440250;28;20166;-29
2023/10/17 17:33:42;;;;;;;7.90;2.10;;;;;;;19.16;53.64;96336.41;10439016;28;20055;-29
2023/10/17 17:38:43;;;;;;;6.90;1.83;;;;;;;19.08;52.79;96319.59;10437732;28;20045;-29
2023/10/17 17:43:43;;;;;;;8.65;2.10;;;;;;;19.15;53.22;96331.34;10443593;28;20552;-29
2023/10/17 17:48:44;;;;;;;5.88;2.20;;;;;;;19.10;53.01;96322.94;10441246;28;20036;-30
2023/10/17 17:53:46;;;;;;;8.43;2.07;;;;;;;19.14;52.98;96314.44;10436712;28;20034;-29
2023/10/17 17:58:48;;;;;;;7.43;2.08;;;;;;;19.12;52.83;96324.63;10447654;28;20029;-30
2023/10/17 18:03:50;;;;;;;8.52;2.38;;;;;;;19.13;53.06;96302.63;10443354;28;20468;-29
2023/10/17 18:08:50;;;;;;;6.38;2.25;;;;;;;19.08;53.21;96294.22;10440360;28;20135;-30
2023/10/17 18:13:51;;;;;;;6.10;2.42;;;;;;;19.12;52.77;96300.94;10437689;28;20503;-29
2023/10/17 18:18:51;;;;;;;7.18;1.77;;;;;;;19.12;53.11;96301.78;10432198;28;20033;-29
2023/10/17 18:23:51;;;;;;;4.10;2.00;;;;;;;19.12;53.23;96290.78;10430848;28;20029;-29
2023/10/17 18:28:52;;;;;;;3.20;1.83;;;;;;;19.12;53.05;96285.72;10437448;28;20090;-30
2023/10/17 18:33:55;;;;;;;3.33;1.42;;;;;;;19.10;52.60;96282.34;10430048;28;20441;-30
2023/10/17 18:39:02;;;;;;;5.57;1.75;;;;;;;19.10;53.20;96277.28;10440560;28;20033;-29
2023/10/17 18:44:03;;;;;;;;;;;;;;;19.10;52.71;96272.19;10447089;28;20641;-30
2023/10/17 18:49:03;;;;;;;9.90;1.95;;;;;;;19.09;52.48;96275.59;10446966;28;19936;-29
2023/10/17 18:54:05;;;;;;;5.82;1.63;;;;;;;19.10;52.67;96264.59;10439570;28;20453;-29
2023/10/17 18:59:05;;;;;;;4.97;2.13;;;;;;;19.06;53.13;96260.38;10437796;28;20076;-29
2023/10/17 19:04:06;;;;;;;3.42;1.63;;;;;;;19.14;52.59;96278.91;10432625;28;20033;-29
2023/10/17 19:09:12;;;;;;;6.17;1.90;;;;;;;19.05;54.04;96268.84;10446050;28;20054;-29
2023/10/17 19:14:12;;;;;;;8.27;2.58;;;;;;;19.03;54.81;96261.28;10434291;28;20445;-30
2023/10/17 19:19:13;;;;;;;3.33;2.00;;;;;;;19.04;54.57;96268.03;10434275;28;20033;-29
2023/10/17 19:24:13;;;;;;;3.73;2.07;;;;;;;19.04;55.14;96282.41;10437313;28;20025;-29
2023/10/17 19:29:14;;;;;;;6.83;2.23;;;;;;;19.02;55.59;96284.94;10438512;28;20032;-29
2023/10/17 19:34:15;;;;;;;8.25;2.15;;;;;;;18.97;55.90;96283.31;10441396;28;20067;-30
2023/10/17 19:39:15;;;;;;;7.40;2.35;;;;;;;18.92;56.28;96283.34;10440203;28;20521;-29
2023/10/17 19:44:15;;;;;;;4.63;1.80;;;;;;;18.96;56.50;96291.78;10445151;28;20491;-29
2023/10/17 19:49:18;;;;;;;4.53;2.10;;;;;;;18.91;56.99;96263.09;10442674;28;20047;-29
2023/10/17 19:54:19;;;;;;;5.07;2.00;;;;;;;18.93;57.27;96268.97;10441838;28;20025;-30
2023/10/17 19:59:20;;;;;;;3.97;1.97;;;;;;;18.92;57.42;96280.00;10447323;28;20494;-29
2023/10/17 20:04:20;;;;;;;4.28;1.95;;;;;;;18.90;57.48;96279.13;10419941;28;20534;-29
2023/10/17 20:09:25;;;;;;;2.93;1.70;;;;;;;18.89;57.44;96267.31;10421437;28;20044;-29
2023/10/17 20:14:25;;;;;;;5.60;1.80;;;;;;;18.88;57.42;96263.09;10435403;28;20033;-29
2023/10/17 20:19:26;;;;;;;3.93;2.00;;;;;;;18.87;57.49;96256.34;10434252;28;20041;-30
2023/10/17 20:24:27;;;;;;;3.53;1.98;;;;;;;18.85;57.78;96243.66;10435874;28;20033;-29
2023/10/17 20:29:28;;;;;;;3.50;2.20;;;;;;;18.86;57.63;96241.97;10431561;28;20496;-29
2023/10/17 20:34:29;;;;;;;4.43;1.97;;;;;;;18.84;57.75;96242.00;10446327;28;20029;-29
2023/10/17 20:39:32;;;;;;;2.05;1.35;;;;;;;18.85;57.37;96246.19;10445167;28;20056;-30
2023/10/17 20:44:34;;;;;;;4.10;1.77;;;;;;;18.86;57.11;96247.91;10435811;28;20053;-29
2023/10/17 20:49:35;;;;;;;3.05;1.95;;;;;;;18.92;56.29;96247.00;10429281;28;21459;-29
2023/10/17 20:54:39;;;;;;;4.53;1.95;;;;;;;18.98;55.40;96241.84;10427556;28;20040;-29
2023/10/17 20:59:39;;;;;;;5.15;1.77;;;;;;;19.00;54.64;96237.63;10433793;28;20033;-30
2023/10/17 21:04:40;;;;;;;3.73;1.60;;;;;;;19.01;54.94;96229.16;10437841;28;20049;-30
2023/10/17 21:09:41;;;;;;;4.68;1.80;;;;;;;19.00;54.74;96220.69;10442982;28;20033;-30
2023/10/17 21:14:41;;;;;;;3.85;1.67;;;;;;;19.01;54.47;96221.56;10451650;28;20037;-30
2023/10/17 21:19:41;;;;;;;4.13;1.93;;;;;;;19.00;54.40;96217.34;10444592;28;20043;-29
2023/10/17 21:24:42;;;;;;;2.50;1.50;;;;;;;19.02;54.39;96220.69;10445883;28;20033;-29
2023/10/17 21:29:42;;;;;;;4.87;1.73;;;;;;;19.02;54.37;96218.16;10452871;28;20479;-29
2023/10/17 21:34:42;;;;;;;6.47;1.67;;;;;;;18.99;54.68;96220.72;10451855;28;20314;-29
2023/10/17 21:39:43;;;;;;;1.80;1.47;;;;;;;19.01;54.46;96222.38;10444510;28;20665;-29
2023/10/17 21:44:43;;;;;;;5.10;2.13;;;;;;;19.02;54.33;96223.22;10447617;28;20444;-29
2023/10/17 21:49:44;;;;;;;2.47;1.60;;;;;;;18.99;54.32;96219.03;10446124;28;20059;-29
2023/10/17 21:54:44;;;;;;;3.22;1.90;;;;;;;19.03;54.20;96224.91;10442991;28;20299;-29
2023/10/17 21:59:44;;;;;;;2.40;1.60;;;;;;;19.02;54.13;96215.63;10446697;28;20033;-29
2023/10/17 22:04:45;;;;;;;2.30;1.63;;;;;;;19.02;54.29;96208.84;10443183;28;20025;-28
2023/10/17 22:09:45;;;;;;;3.63;1.75;;;;;;;19.03;53.98;96212.22;10443674;28;20288;-31
2023/10/17 22:14:46;;;;;;;2.90;1.58;;;;;;;19.00;53.94;96205.47;10450227;28;20410;-30
2023/10/17 22:19:47;;;;;;;3.80;1.57;;;;;;;19.02;54.21;96205.47;10444138;28;20084;-30
2023/10/17 22:24:47;;;;;;;2.88;1.33;;;;;;;19.02;53.90;96197.84;10444082;28;20597;-31
2023/10/17 22:29:47;;;;;;;3.53;1.80;;;;;;;19.01;53.83;96186.03;10448898;28;20048;-29
2023/10/17 22:34:48;;;;;;;3.53;1.60;;;;;;;19.02;53.83;96187.72;10448189;28;20402;-29
2023/10/17 22:39:48;;;;;;;2.50;1.20;;;;;;;19.03;53.77;96184.31;10443175;28;20438;-30
2023/10/17 22:44:49;;;;;;;4.67;1.50;;;;;;;19.02;53.11;96195.31;10449003;28;20368;-30
2023/10/17 22:49:49;;;;;;;4.30;2.00;;;;;;;19.02;53.79;96185.19;10447394;28;20283;-30
2023/10/17 22:54:50;;;;;;;2.70;1.30;;;;;;;19.02;53.73;96182.63;10442729;28;20044;-28
2023/10/17 22:59:50;;;;;;;2.80;1.63;;;;;;;19.00;53.80;96189.44;10449406;28;20048;-29
2023/10/17 23:04:53;;;;;;;3.43;2.13;;;;;;;19.01;53.76;96186.03;10443412;28;20442;-30
2023/10/17 23:09:53;;;;;;;2.55;1.70;;;;;;;19.02;53.58;96185.19;10443617;28;20040;-30
2023/10/17 23:14:54;;;;;;;1.77;1.53;;;;;;;19.04;53.34;96171.63;10448256;28;20082;-29
2023/10/17 23:19:55;;;;;;;4.90;1.63;;;;;;;19.06;53.26;96176.66;10447752;28;20056;-30
2023/10/17 23:24:55;;;;;;;2.70;1.40;;;;;;;19.10;53.30;96175.78;10443292;28;20082;-29
2023/10/17 23:29:56;;;;;;;4.50;2.00;;;;;;;19.13;52.77;96173.19;10448490;28;20070;-29
2023/10/17 23:34:56;;;;;;;2.53;1.57;;;;;;;19.14;53.08;96173.19;10440962;28;20029;-29
2023/10/17 23:39:56;;;;;;;2.60;1.60;;;;;;;19.13;52.83;96163.06;10446342;28;20090;-30
2023/10/17 23:44:58;;;;;;;3.47;1.47;;;;;;;19.10;53.24;96141.09;10447945;28;20025;-31
2023/10/17 23:49:59;;;;;;;2.90;1.35;;;;;;;19.12;52.80;96134.31;10440784;28;20037;-30
2023/10/17 23:55:00;;;;;;;2.45;1.35;;;;;;;19.11;52.96;96121.66;10442234;28;20087;-30
